Авиационная погода в Астане

Регион: 
Погода METAR: 
UACC 221800Z 07003MPS 7000 NSC M23/M25 Q1026 TEMPO 2000 BR BKN005 RMK QFE738/0984
Время наблюдения
2022-01-22T18:00:00Z
Температура C
-23.0
Точка росы
-25.0
Направление ветра
70
Скорость ветра (узлы)
6
Метео видимость
4.35
Облачность
CLR
Нижняя граница облачности (футы)
Явления погоды
Условия полета
MVFR
Аэропорт подробнее: 
CLR — нет облаков ниже 3000 м